createdAt,value
2018-07-23T00:00:14.478Z,92.05
2018-07-23T00:01:14.405Z,92.22
2018-07-23T00:02:14.553Z,92
2018-07-23T00:03:14.500Z,91.95
2018-07-23T00:04:14.434Z,92.05
2018-07-23T00:05:14.427Z,91.82
2018-07-23T00:06:14.486Z,91.85
2018-07-23T00:07:14.419Z,91.67
2018-07-23T00:08:14.408Z,91.8
2018-07-23T00:09:14.473Z,91.69
2018-07-23T00:10:14.412Z,91.52
2018-07-23T00:11:14.413Z,91.49
2018-07-23T00:12:14.437Z,91.53
2018-07-23T00:13:14.423Z,91.46
2018-07-23T00:14:14.456Z,91.93
2018-07-23T00:15:14.445Z,91.57
2018-07-23T00:16:14.416Z,91.53
2018-07-23T00:17:14.421Z,91.49
2018-07-23T00:18:14.425Z,91.9
2018-07-23T00:19:15.391Z,91.89
2018-07-23T00:20:14.444Z,91.96
2018-07-23T00:21:14.444Z,91.9
2018-07-23T00:22:14.454Z,92.22
2018-07-23T00:23:14.483Z,92.28
2018-07-23T00:24:14.493Z,92.21
2018-07-23T00:25:14.512Z,92.3
2018-07-23T00:26:14.427Z,92.23
2018-07-23T00:27:14.438Z,92.32
2018-07-23T00:28:14.443Z,92.06
2018-07-23T00:29:14.428Z,91.94
2018-07-23T00:30:14.482Z,91.8
2018-07-23T00:31:14.459Z,91.76
2018-07-23T00:32:14.440Z,91.74
2018-07-23T00:33:14.463Z,91.92
2018-07-23T00:34:14.733Z,91.81
2018-07-23T00:35:14.440Z,91.79
2018-07-23T00:36:14.447Z,91.95
2018-07-23T00:37:14.454Z,91.98
2018-07-23T00:38:14.452Z,91.77
2018-07-23T00:39:14.469Z,91.96
2018-07-23T00:40:14.447Z,91.8
2018-07-23T00:41:14.431Z,91.59
2018-07-23T00:42:14.438Z,91.55
2018-07-23T00:43:14.472Z,91.53
2018-07-23T00:44:14.447Z,91.44
2018-07-23T00:45:14.471Z,91.49
2018-07-23T00:46:14.453Z,91.65
2018-07-23T00:47:14.474Z,92.08
2018-07-23T00:48:14.450Z,92.03
2018-07-23T00:49:14.435Z,92.12
2018-07-23T00:50:14.465Z,92.39
2018-07-23T00:51:14.528Z,92.58
2018-07-23T00:52:14.496Z,92.16
2018-07-23T00:53:14.500Z,92.36
2018-07-23T00:54:14.503Z,92.65
2018-07-23T00:55:14.484Z,92.39
2018-07-23T00:56:14.440Z,92.71
2018-07-23T00:57:14.490Z,92.56
2018-07-23T00:58:14.496Z,92.78
2018-07-23T00:59:14.462Z,92.71
2018-07-23T01:00:14.647Z,92.67
2018-07-23T01:01:14.488Z,92.67
2018-07-23T01:02:14.477Z,92.32
2018-07-23T01:03:14.495Z,92.13
2018-07-23T01:04:14.703Z,92.3
2018-07-23T01:05:14.474Z,92.32
2018-07-23T01:06:14.478Z,92.35
2018-07-23T01:07:14.452Z,92.21
2018-07-23T01:08:14.493Z,92.17
2018-07-23T01:09:14.529Z,92.21
2018-07-23T01:10:14.497Z,92.66
2018-07-23T01:11:14.489Z,92.97
2018-07-23T01:12:14.474Z,93.29
2018-07-23T01:13:14.448Z,93.06
2018-07-23T01:14:14.501Z,93.04
2018-07-23T01:15:14.506Z,92.7
2018-07-23T01:16:14.574Z,92.56
2018-07-23T01:17:14.509Z,92.43
2018-07-23T01:18:14.442Z,92.33
2018-07-23T01:19:14.544Z,92.34
2018-07-23T01:20:14.470Z,92.11
2018-07-23T01:21:14.504Z,92.51
2018-07-23T01:22:14.574Z,92.47
2018-07-23T01:23:14.519Z,92.26
2018-07-23T01:24:14.503Z,92.86
2018-07-23T01:25:14.585Z,92.61
2018-07-23T01:26:14.489Z,92.46
2018-07-23T01:27:14.505Z,92.08
2018-07-23T01:28:14.531Z,92.79
2018-07-23T01:29:14.531Z,92.91
2018-07-23T01:30:14.469Z,92.76
2018-07-23T01:31:14.627Z,92.85
2018-07-23T01:32:14.467Z,92.5
2018-07-23T01:33:14.482Z,93.19
2018-07-23T01:34:14.485Z,93.51
2018-07-23T01:35:14.513Z,93.72
2018-07-23T01:36:14.623Z,93.81
2018-07-23T01:37:14.513Z,93.81
2018-07-23T01:38:14.515Z,93.7
2018-07-23T01:39:14.640Z,93.47
2018-07-23T01:40:14.595Z,93.1
2018-07-23T01:41:14.503Z,92.94
2018-07-23T01:42:14.574Z,92.86
2018-07-23T01:43:14.506Z,93.08
2018-07-23T01:44:14.527Z,93.56
2018-07-23T01:45:14.540Z,93.09
2018-07-23T01:46:14.515Z,92.73
2018-07-23T01:47:14.510Z,92.91
2018-07-23T01:48:14.495Z,92.66
2018-07-23T01:49:14.552Z,92.66
2018-07-23T01:50:14.541Z,92.63
2018-07-23T01:51:14.514Z,92.99
2018-07-23T01:52:14.565Z,93.62
2018-07-23T01:53:14.534Z,93.3
2018-07-23T01:54:14.548Z,93.7
2018-07-23T01:55:14.544Z,93.55
2018-07-23T01:56:14.550Z,93.38
2018-07-23T01:57:14.520Z,93.28
2018-07-23T01:58:14.528Z,93.16
2018-07-23T01:59:14.525Z,92.85
2018-07-23T02:00:14.565Z,92.73
2018-07-23T02:01:14.488Z,92.75
2018-07-23T02:02:14.482Z,92.83
2018-07-23T02:03:14.598Z,92.74
2018-07-23T02:04:14.505Z,92.91
2018-07-23T02:05:14.548Z,92.83
2018-07-23T02:06:14.506Z,92.79
2018-07-23T02:07:14.508Z,92.81
2018-07-23T02:08:14.513Z,93.23
2018-07-23T02:09:14.527Z,92.63
2018-07-23T02:10:14.542Z,92.51
2018-07-23T02:11:14.531Z,92.47
2018-07-23T02:12:14.516Z,92.35
2018-07-23T02:13:14.656Z,93.05
2018-07-23T02:14:14.556Z,93.1
2018-07-23T02:15:14.525Z,92.9
2018-07-23T02:16:14.549Z,92.83
2018-07-23T02:17:14.532Z,92.8
2018-07-23T02:18:14.601Z,92.97
2018-07-23T02:19:14.594Z,92.82
2018-07-23T02:20:14.585Z,92.59
2018-07-23T02:21:14.561Z,92.84
2018-07-23T02:22:14.750Z,92.66
2018-07-23T02:23:14.547Z,92.62
2018-07-23T02:24:14.596Z,92.52
2018-07-23T02:25:14.534Z,92.39
2018-07-23T02:26:14.915Z,92.28
2018-07-23T02:27:14.523Z,92.27
2018-07-23T02:28:14.583Z,92.22
2018-07-23T02:29:14.524Z,92.52
2018-07-23T02:30:14.607Z,92.38
2018-07-23T02:31:14.643Z,92.43
2018-07-23T02:32:14.577Z,92.26
2018-07-23T02:33:14.602Z,91.99
2018-07-23T02:34:14.562Z,92.15
2018-07-23T02:35:14.571Z,92.2
2018-07-23T02:36:14.534Z,92.16
2018-07-23T02:37:14.840Z,92.05
2018-07-23T02:38:14.576Z,92
2018-07-23T02:39:14.577Z,92.29
2018-07-23T02:40:14.564Z,92.09
2018-07-23T02:41:14.568Z,91.98
2018-07-23T02:42:14.600Z,92.18
2018-07-23T02:43:14.564Z,92.06
2018-07-23T02:44:14.566Z,91.98
2018-07-23T02:45:14.558Z,92.07
2018-07-23T02:46:14.604Z,92.03
2018-07-23T02:47:14.576Z,91.92
2018-07-23T02:48:14.694Z,91.88
2018-07-23T02:49:14.634Z,91.85
2018-07-23T02:50:14.578Z,91.89
2018-07-23T02:51:14.536Z,91.96
2018-07-23T02:52:14.589Z,91.97
2018-07-23T02:53:14.599Z,91.98
2018-07-23T02:54:14.555Z,91.97
2018-07-23T02:55:14.641Z,91.9
2018-07-23T02:56:14.702Z,91.92
2018-07-23T02:57:14.570Z,92.07
2018-07-23T02:58:14.591Z,92.04
2018-07-23T02:59:14.652Z,91.94
2018-07-23T03:00:14.573Z,92.17
2018-07-23T03:01:14.642Z,92.1
2018-07-23T03:02:15.284Z,92.09
2018-07-23T03:03:14.578Z,91.91
2018-07-23T03:04:14.573Z,91.74
2018-07-23T03:05:14.626Z,91.89
2018-07-23T03:06:14.642Z,91.83
2018-07-23T03:07:14.548Z,91.65
2018-07-23T03:08:14.545Z,91.68
2018-07-23T03:09:14.587Z,91.51
2018-07-23T03:10:14.568Z,91.56
2018-07-23T03:11:14.575Z,91.46
2018-07-23T03:12:14.570Z,91.62
2018-07-23T03:13:14.577Z,91.49
2018-07-23T03:14:14.552Z,91.76
2018-07-23T03:15:14.635Z,91.64
2018-07-23T03:16:14.600Z,91.55
2018-07-23T03:17:14.563Z,91.59
2018-07-23T03:18:14.584Z,91.99
2018-07-23T03:19:14.575Z,91.93
2018-07-23T03:20:14.582Z,91.93
2018-07-23T03:21:14.587Z,91.91
2018-07-23T03:22:14.550Z,92.15
2018-07-23T03:23:14.555Z,92.71
2018-07-23T03:24:14.575Z,92.12
2018-07-23T03:25:14.568Z,92.54
2018-07-23T03:26:14.563Z,92.2
2018-07-23T03:27:14.556Z,92.31
2018-07-23T03:28:14.572Z,92.09
2018-07-23T03:29:14.548Z,92.12
2018-07-23T03:30:14.576Z,92.24
2018-07-23T03:31:14.650Z,92.26
2018-07-23T03:32:14.746Z,92.27
2018-07-23T03:33:15.283Z,92.07
2018-07-23T03:34:15.700Z,92.02
2018-07-23T03:35:14.600Z,91.85
2018-07-23T03:36:14.615Z,91.85
2018-07-23T03:37:14.584Z,92.21
2018-07-23T03:38:14.585Z,92.25
2018-07-23T03:39:14.652Z,92.09
2018-07-23T03:40:14.788Z,92.09
2018-07-23T03:41:14.634Z,91.81
2018-07-23T03:42:14.615Z,91.8
2018-07-23T03:43:14.680Z,91.87
2018-07-23T03:44:14.630Z,91.85
2018-07-23T03:45:14.590Z,91.97
2018-07-23T03:46:14.756Z,91.82
2018-07-23T03:47:14.597Z,91.88
2018-07-23T03:48:14.637Z,91.71
2018-07-23T03:49:14.876Z,91.87
2018-07-23T03:50:14.699Z,92.01
2018-07-23T03:51:14.627Z,91.88
2018-07-23T03:52:14.639Z,91.82
2018-07-23T03:53:14.764Z,91.89
2018-07-23T03:54:14.668Z,92.17
2018-07-23T03:55:14.713Z,91.85
2018-07-23T03:56:14.614Z,91.73
2018-07-23T03:57:14.613Z,91.7
2018-07-23T03:58:14.679Z,91.88
2018-07-23T03:59:14.922Z,91.91
2018-07-23T04:00:14.617Z,91.73
2018-07-23T04:01:14.758Z,91.65
2018-07-23T04:02:14.574Z,91.71
2018-07-23T04:03:14.579Z,91.98
2018-07-23T04:04:14.825Z,91.98
2018-07-23T04:05:15.310Z,91.74
2018-07-23T04:06:14.604Z,91.74
2018-07-23T04:07:14.690Z,91.73
2018-07-23T04:08:14.652Z,91.67
2018-07-23T04:09:14.649Z,91.56
2018-07-23T04:10:14.613Z,91.47
2018-07-23T04:11:14.619Z,91.55
2018-07-23T04:12:14.617Z,91.43
2018-07-23T04:13:14.629Z,91.48
2018-07-23T04:14:14.643Z,91.52
2018-07-23T04:15:14.721Z,91.82
2018-07-23T04:16:14.857Z,91.87
2018-07-23T04:17:14.679Z,91.77
2018-07-23T04:18:14.660Z,91.73
2018-07-23T04:19:14.614Z,92.04
2018-07-23T04:20:14.589Z,91.93
2018-07-23T04:21:14.631Z,91.96
2018-07-23T04:22:14.600Z,92.24
2018-07-23T04:23:14.623Z,91.99
2018-07-23T04:24:14.716Z,92.49
2018-07-23T04:25:14.629Z,92.59
2018-07-23T04:26:14.674Z,92.55
2018-07-23T04:27:14.601Z,92.62
2018-07-23T04:28:14.647Z,92.62
2018-07-23T04:29:14.656Z,92.42
2018-07-23T04:30:14.635Z,92.28
2018-07-23T04:31:14.619Z,92.12
2018-07-23T04:32:14.662Z,92.34
2018-07-23T04:33:14.605Z,92.26
2018-07-23T04:34:14.639Z,92.6
2018-07-23T04:35:14.707Z,92.54
2018-07-23T04:36:14.960Z,92.5
2018-07-23T04:37:14.642Z,92.17
2018-07-23T04:38:14.642Z,92.21
2018-07-23T04:39:14.716Z,92.2
2018-07-23T04:40:14.641Z,92.22
2018-07-23T04:41:14.642Z,92.36
2018-07-23T04:42:14.706Z,92.67
2018-07-23T04:43:14.638Z,92.81
2018-07-23T04:44:14.622Z,92.55
2018-07-23T04:45:14.658Z,92.81
2018-07-23T04:46:14.807Z,93.24
2018-07-23T04:47:14.640Z,92.92
2018-07-23T04:48:14.618Z,92.76
2018-07-23T04:49:14.921Z,92.54
2018-07-23T04:50:14.634Z,92.44
2018-07-23T04:51:14.628Z,92.3
2018-07-23T04:52:14.725Z,92.38
2018-07-23T04:53:14.743Z,92.26
2018-07-23T04:54:14.672Z,92.11
2018-07-23T04:55:14.652Z,92.26
2018-07-23T04:56:14.646Z,92.08
2018-07-23T04:57:14.975Z,92.08
2018-07-23T04:58:14.639Z,91.94
2018-07-23T04:59:14.658Z,92.16
2018-07-23T05:00:14.642Z,92.24
2018-07-23T05:01:14.725Z,91.95
2018-07-23T05:02:14.716Z,91.99
2018-07-23T05:03:14.664Z,91.88
2018-07-23T05:04:14.688Z,91.78
2018-07-23T05:05:14.736Z,91.85
2018-07-23T05:06:14.726Z,91.8
2018-07-23T05:07:14.705Z,91.66
2018-07-23T05:08:14.724Z,91.91
2018-07-23T05:09:14.643Z,91.81
2018-07-23T05:10:14.716Z,91.82
2018-07-23T05:11:14.696Z,91.62
2018-07-23T05:12:14.665Z,91.8
2018-07-23T05:13:14.647Z,91.7
2018-07-23T05:14:14.798Z,91.63
2018-07-23T05:15:14.675Z,91.72
2018-07-23T05:16:14.657Z,91.98
2018-07-23T05:17:14.710Z,91.88
2018-07-23T05:18:14.709Z,91.67
2018-07-23T05:19:14.635Z,92.11
2018-07-23T05:20:14.658Z,91.97
2018-07-23T05:21:14.751Z,91.87
2018-07-23T05:22:14.699Z,91.9
2018-07-23T05:23:14.643Z,91.92
2018-07-23T05:24:14.683Z,91.91
2018-07-23T05:25:14.742Z,92.3
2018-07-23T05:26:14.744Z,92.04
2018-07-23T05:27:15.356Z,91.97
2018-07-23T05:28:14.673Z,92.01
2018-07-23T05:29:14.674Z,92.05
2018-07-23T05:30:14.635Z,91.78
2018-07-23T05:31:14.729Z,91.79
2018-07-23T05:32:14.669Z,91.67
2018-07-23T05:33:14.733Z,91.92
2018-07-23T05:34:14.701Z,91.75
2018-07-23T05:35:14.671Z,91.54
2018-07-23T05:36:14.643Z,91.85
2018-07-23T05:37:14.664Z,91.52
2018-07-23T05:38:14.704Z,91.54
2018-07-23T05:39:14.748Z,91.39
2018-07-23T05:40:14.807Z,91.71
2018-07-23T05:41:14.695Z,91.74
2018-07-23T05:42:14.681Z,91.44
2018-07-23T05:43:14.717Z,91.54
2018-07-23T05:44:14.715Z,91.47
2018-07-23T05:45:14.668Z,91.28
2018-07-23T05:46:14.917Z,91.29
2018-07-23T05:47:14.683Z,90.99
2018-07-23T05:48:14.675Z,91.12
2018-07-23T05:49:14.671Z,91.01
2018-07-23T05:50:14.658Z,91.17
2018-07-23T05:51:14.672Z,91.44
2018-07-23T05:52:14.666Z,91.46
2018-07-23T05:53:14.663Z,91.3
2018-07-23T05:54:14.748Z,91.22
2018-07-23T05:55:14.690Z,91.09
2018-07-23T05:56:14.719Z,91
2018-07-23T05:57:14.706Z,91.06
2018-07-23T05:58:14.670Z,90.89
2018-07-23T05:59:14.687Z,90.56
2018-07-23T06:00:14.696Z,91.05
2018-07-23T06:01:14.694Z,90.9
2018-07-23T06:02:14.738Z,90.68
2018-07-23T06:03:14.680Z,91
2018-07-23T06:04:14.692Z,90.89
2018-07-23T06:05:14.656Z,91.1
2018-07-23T06:06:14.708Z,91.19
2018-07-23T06:07:14.683Z,91.41
2018-07-23T06:08:14.816Z,91.86
2018-07-23T06:09:14.862Z,91.8
2018-07-23T06:10:15.048Z,91.67
2018-07-23T06:11:14.705Z,91.73
2018-07-23T06:12:14.687Z,91.36
2018-07-23T06:13:14.738Z,91.76
2018-07-23T06:14:14.759Z,91.69
2018-07-23T06:15:14.702Z,91.3
2018-07-23T06:16:14.689Z,91.3
2018-07-23T06:17:14.702Z,91.37
2018-07-23T06:18:14.683Z,92.17
2018-07-23T06:19:14.734Z,92.06
2018-07-23T06:20:14.718Z,91.7
2018-07-23T06:21:14.911Z,91.69
2018-07-23T06:22:14.744Z,91.89
2018-07-23T06:23:14.863Z,92.25
2018-07-23T06:24:14.706Z,92.75
2018-07-23T06:25:14.880Z,92.11
2018-07-23T06:26:14.756Z,91.99
2018-07-23T06:27:14.743Z,92.99
2018-07-23T06:28:14.730Z,93.28
2018-07-23T06:29:14.768Z,92.64
2018-07-23T06:30:14.822Z,92.94
2018-07-23T06:31:14.705Z,92.45
2018-07-23T06:32:14.922Z,92.91
2018-07-23T06:33:14.712Z,92.87
2018-07-23T06:34:14.710Z,92.81
2018-07-23T06:35:14.686Z,93.29
2018-07-23T06:36:14.695Z,92.59
2018-07-23T06:37:14.714Z,93.04
2018-07-23T06:38:14.837Z,93.56
2018-07-23T06:39:14.736Z,94.56
2018-07-23T06:40:15.478Z,94.13
2018-07-23T06:41:14.691Z,93.75
2018-07-23T06:42:15.661Z,93.29
2018-07-23T06:43:14.698Z,93.96
2018-07-23T06:44:14.722Z,94.64
2018-07-23T06:45:14.750Z,94.85
2018-07-23T06:46:14.811Z,94.12
2018-07-23T06:47:14.733Z,93.94
2018-07-23T06:48:14.715Z,93.7
2018-07-23T06:49:14.973Z,93.59
2018-07-23T06:50:14.738Z,93.35
2018-07-23T06:51:14.739Z,94.71
2018-07-23T06:52:14.947Z,94.36
2018-07-23T06:53:14.728Z,93.78
2018-07-23T06:54:14.733Z,93.54
2018-07-23T06:55:14.713Z,93.49
2018-07-23T06:56:14.726Z,93.49
2018-07-23T06:57:14.737Z,93.53
2018-07-23T06:58:14.717Z,93.68
2018-07-23T06:59:14.889Z,93.63
2018-07-23T07:00:15.022Z,93.53
2018-07-23T07:01:14.754Z,92.86
2018-07-23T07:02:14.797Z,92.73
2018-07-23T07:03:14.867Z,92.82
2018-07-23T07:04:14.730Z,93.47
2018-07-23T07:05:14.937Z,94.09
2018-07-23T07:06:14.731Z,93.67
2018-07-23T07:07:14.703Z,93.52
2018-07-23T07:08:14.756Z,92.78
2018-07-23T07:09:14.702Z,92.9
2018-07-23T07:10:14.762Z,92.91
2018-07-23T07:11:14.730Z,92.64
2018-07-23T07:12:14.788Z,92.62
2018-07-23T07:13:14.727Z,92.54
2018-07-23T07:14:14.834Z,92.29
2018-07-23T07:15:14.717Z,92.5
2018-07-23T07:16:14.798Z,93.22
2018-07-23T07:17:14.771Z,93.31
2018-07-23T07:18:14.745Z,93.96
2018-07-23T07:19:14.747Z,92.36
2018-07-23T07:20:21.973Z,92.5
2018-07-23T07:21:14.753Z,91.98
2018-07-23T07:22:14.762Z,92.17
2018-07-23T07:23:14.752Z,91.83
2018-07-23T07:24:14.770Z,91.72
2018-07-23T07:25:14.778Z,91.17
2018-07-23T07:26:14.779Z,91.77
2018-07-23T07:27:14.722Z,90.98
2018-07-23T07:28:14.927Z,91.52
2018-07-23T07:29:14.921Z,91.51
2018-07-23T07:30:14.944Z,91.29
2018-07-23T07:31:14.789Z,90.99
2018-07-23T07:32:14.952Z,91.26
2018-07-23T07:33:14.931Z,90.95
2018-07-23T07:34:14.741Z,91.25
2018-07-23T07:35:15.066Z,91.4
2018-07-23T07:36:14.771Z,92.6
2018-07-23T07:37:14.955Z,91.48
2018-07-23T07:38:14.873Z,90.95
2018-07-23T07:39:14.779Z,90.39
2018-07-23T07:40:14.750Z,90.34
2018-07-23T07:41:14.881Z,90.23
2018-07-23T07:42:14.836Z,91.66
2018-07-23T07:43:14.882Z,91.61
2018-07-23T07:44:14.745Z,91.09
2018-07-23T07:45:14.868Z,90.75
2018-07-23T07:46:14.731Z,92.19
2018-07-23T07:47:14.874Z,91.81
2018-07-23T07:48:14.838Z,91.06
2018-07-23T07:49:14.959Z,90.5
2018-07-23T07:50:14.883Z,90.62
2018-07-23T07:51:14.749Z,90.59
2018-07-23T07:52:15.024Z,90.62
2018-07-23T07:53:14.766Z,90.8
2018-07-23T07:54:14.878Z,91.49
2018-07-23T07:55:14.906Z,91.33
2018-07-23T07:56:14.972Z,91
2018-07-23T07:57:14.814Z,90.41
2018-07-23T07:58:14.801Z,91.36
2018-07-23T07:59:14.972Z,90.93
2018-07-23T08:00:14.816Z,90.35
2018-07-23T08:01:14.946Z,90.83
2018-07-23T08:02:14.879Z,89.99
2018-07-23T08:03:14.784Z,90.09
2018-07-23T08:04:14.899Z,89.8
2018-07-23T08:05:14.836Z,89.36
2018-07-23T08:06:14.903Z,89.65
2018-07-23T08:07:14.859Z,89.98
2018-07-23T08:08:14.926Z,89.67
2018-07-23T08:09:14.895Z,89.04
2018-07-23T08:10:14.825Z,88.34
2018-07-23T08:11:14.793Z,87.94
2018-07-23T08:12:14.800Z,87.23
2018-07-23T08:13:14.789Z,87.46
2018-07-23T08:14:15.048Z,87.52
2018-07-23T08:15:14.763Z,86.78
2018-07-23T08:16:14.761Z,86.99
2018-07-23T08:17:14.766Z,86.73
2018-07-23T08:18:14.852Z,85.67
2018-07-23T08:19:14.833Z,87.1
2018-07-23T08:20:14.923Z,85.65
2018-07-23T08:21:14.835Z,85.77
2018-07-23T08:22:14.893Z,86.12
2018-07-23T08:23:14.783Z,84.66
2018-07-23T08:24:14.828Z,84.56
2018-07-23T08:25:14.913Z,85.34
2018-07-23T08:26:14.873Z,85.13
2018-07-23T08:27:14.912Z,83.92
2018-07-23T08:28:14.803Z,84.59
2018-07-23T08:29:14.766Z,85.05
2018-07-23T08:30:14.803Z,84.04
2018-07-23T08:31:14.909Z,83.34
2018-07-23T08:32:14.815Z,84.28
2018-07-23T08:33:14.900Z,84.58
2018-07-23T08:34:14.842Z,84.73
2018-07-23T08:35:14.806Z,83.47
2018-07-23T08:36:14.795Z,83.43
2018-07-23T08:37:14.856Z,83.93
2018-07-23T08:38:15.895Z,84.24
2018-07-23T08:39:14.808Z,83.78
2018-07-23T08:40:14.791Z,84.08
2018-07-23T08:41:14.852Z,83.3
2018-07-23T08:42:14.895Z,83.23
2018-07-23T08:43:14.806Z,83.72
2018-07-23T08:44:14.867Z,82.49
2018-07-23T08:45:14.913Z,81.31
2018-07-23T08:46:14.808Z,82.74
2018-07-23T08:47:14.998Z,82.27
2018-07-23T08:48:14.788Z,81.95
2018-07-23T08:49:14.837Z,81.4
2018-07-23T08:50:14.908Z,80.72
2018-07-23T08:51:14.804Z,81.33
2018-07-23T08:52:14.977Z,80.62
2018-07-23T08:53:14.801Z,80.53
2018-07-23T08:54:14.904Z,78.66
2018-07-23T08:55:14.814Z,79.22
2018-07-23T08:56:14.877Z,79.47
2018-07-23T08:57:14.858Z,79.77
2018-07-23T08:58:14.916Z,80.91
2018-07-23T08:59:14.922Z,81.14
2018-07-23T09:00:14.780Z,81.32
2018-07-23T09:01:14.799Z,81.35
2018-07-23T09:02:15.617Z,80.8
2018-07-23T09:03:14.888Z,80.8
2018-07-23T09:04:14.874Z,80.41
2018-07-23T09:05:14.893Z,80.43
2018-07-23T09:06:14.955Z,81.09
2018-07-23T09:07:15.007Z,78.37
2018-07-23T09:08:14.903Z,79.17
2018-07-23T09:09:14.901Z,77.83
2018-07-23T09:10:14.914Z,74.9
2018-07-23T09:11:14.890Z,74.18
2018-07-23T09:12:14.976Z,74.7
2018-07-23T09:13:14.826Z,74.75
2018-07-23T09:14:14.800Z,74.5
2018-07-23T09:15:14.866Z,74.67
2018-07-23T09:16:14.854Z,76.37
2018-07-23T09:17:14.840Z,76.76
2018-07-23T09:18:14.831Z,74.16
2018-07-23T09:19:14.853Z,74.21
2018-07-23T09:20:14.912Z,73.46
2018-07-23T09:21:15.080Z,73.62
2018-07-23T09:22:15.042Z,73.6
2018-07-23T09:23:14.885Z,74.02
2018-07-23T09:24:14.905Z,75.1
2018-07-23T09:25:14.924Z,74.4
2018-07-23T09:26:14.924Z,73.33
2018-07-23T09:27:14.996Z,73.02
2018-07-23T09:28:14.905Z,73.53
2018-07-23T09:29:14.929Z,74.65
2018-07-23T09:30:15.077Z,73.32
2018-07-23T09:31:14.975Z,73.64
2018-07-23T09:32:14.902Z,75.02
2018-07-23T09:33:14.824Z,74.7
2018-07-23T09:34:15.019Z,73.95
2018-07-23T09:35:15.015Z,74.02
2018-07-23T09:36:14.905Z,72.5
2018-07-23T09:37:14.974Z,72.49
2018-07-23T09:38:15.961Z,73.29
2018-07-23T09:39:14.841Z,72.71
2018-07-23T09:40:14.936Z,72.08
2018-07-23T09:41:15.645Z,70.28
2018-07-23T09:42:14.875Z,70.46
2018-07-23T09:43:14.843Z,71.86
2018-07-23T09:44:14.857Z,73.29
2018-07-23T09:45:14.842Z,73.96
2018-07-23T09:46:14.846Z,73.17
2018-07-23T09:47:14.908Z,72.1
2018-07-23T09:48:14.880Z,69.98
2018-07-23T09:49:14.828Z,69.99
2018-07-23T09:50:14.816Z,69.52
2018-07-23T09:51:14.906Z,70.84
2018-07-23T09:52:14.882Z,70.34
2018-07-23T09:53:14.842Z,71.84
2018-07-23T09:54:14.958Z,72.53
2018-07-23T09:55:14.920Z,70.8
2018-07-23T09:56:14.927Z,71.22
2018-07-23T09:57:14.921Z,71.2
2018-07-23T09:58:14.916Z,71.49
2018-07-23T09:59:14.936Z,72.09
2018-07-23T10:00:14.893Z,72.27
2018-07-23T10:01:14.891Z,71.13
2018-07-23T10:02:15.004Z,70.11
2018-07-23T10:03:15.063Z,70.95
2018-07-23T10:04:14.913Z,71.36
2018-07-23T10:05:14.924Z,71.43
2018-07-23T10:06:14.865Z,70.08
2018-07-23T10:07:15.038Z,69.95
2018-07-23T10:08:14.932Z,70.69
2018-07-23T10:09:14.844Z,69.88
2018-07-23T10:10:14.932Z,67.82
2018-07-23T10:11:14.999Z,68.18
2018-07-23T10:12:14.937Z,67.86
2018-07-23T10:13:14.878Z,68.03
2018-07-23T10:14:14.883Z,66.8
2018-07-23T10:15:14.936Z,67.31
2018-07-23T10:16:14.872Z,68.21
2018-07-23T10:17:14.900Z,68.14
2018-07-23T10:18:15.272Z,69.17
2018-07-23T10:19:14.889Z,69.13
2018-07-23T10:20:15.143Z,69.3
2018-07-23T10:21:14.873Z,68.99
2018-07-23T10:22:14.900Z,68.42
2018-07-23T10:23:15.166Z,68.23
2018-07-23T10:24:14.913Z,69.2
2018-07-23T10:25:15.745Z,69.12
2018-07-23T10:26:14.868Z,68.27
2018-07-23T10:27:14.918Z,67.5
2018-07-23T10:28:14.954Z,66.88
2018-07-23T10:29:14.899Z,67.66
2018-07-23T10:30:14.889Z,67.83
2018-07-23T10:31:14.950Z,68.14
2018-07-23T10:32:15.057Z,65.12
2018-07-23T10:33:14.999Z,64.07
2018-07-23T10:34:14.928Z,63.17
2018-07-23T10:35:14.977Z,63.11
2018-07-23T10:36:14.968Z,63.42
2018-07-23T10:37:14.944Z,63.66
2018-07-23T10:38:15.054Z,64.26
2018-07-23T10:39:16.031Z,63.14
2018-07-23T10:40:14.917Z,64.42
2018-07-23T10:41:15.014Z,64.53
2018-07-23T10:42:14.933Z,65.42
2018-07-23T10:43:14.886Z,64.36
2018-07-23T10:44:14.993Z,64.3
2018-07-23T10:45:19.738Z,64.21
2018-07-23T10:46:14.970Z,64.29
2018-07-23T10:47:14.973Z,63.85
2018-07-23T10:48:14.919Z,64.3
2018-07-23T10:49:15.217Z,63.13
2018-07-23T10:50:16.203Z,63.03
2018-07-23T10:51:15.621Z,63.9
2018-07-23T10:52:16.409Z,63.67
2018-07-23T10:53:14.903Z,61.39
2018-07-23T10:54:14.900Z,63.71
2018-07-23T10:55:14.874Z,63.35
2018-07-23T10:56:14.875Z,62.59
2018-07-23T10:57:14.925Z,61.87
2018-07-23T10:58:14.889Z,62.52
2018-07-23T10:59:14.890Z,62.45
2018-07-23T11:00:16.465Z,61.84
2018-07-23T11:01:14.900Z,61.54
2018-07-23T11:02:15.617Z,61.62
2018-07-23T11:03:14.908Z,60.77
2018-07-23T11:04:14.910Z,61.7
2018-07-23T11:05:14.910Z,59.69
2018-07-23T11:06:16.328Z,60.69
2018-07-23T11:07:14.931Z,61.61
2018-07-23T11:08:14.910Z,60.81
2018-07-23T11:09:14.916Z,59.31
2018-07-23T11:10:14.955Z,60.02
2018-07-23T11:11:14.937Z,61.1
2018-07-23T11:12:15.039Z,60.2
2018-07-23T11:13:14.987Z,60.6
2018-07-23T11:14:14.999Z,59.87
2018-07-23T11:15:15.047Z,59.3
2018-07-23T11:16:14.930Z,58.86
2018-07-23T11:17:14.959Z,57.59
2018-07-23T11:18:15.102Z,57.19
2018-07-23T11:19:15.280Z,57.58
2018-07-23T11:20:15.083Z,58.13
2018-07-23T11:21:14.940Z,57.32
2018-07-23T11:22:14.922Z,57.07
2018-07-23T11:23:14.944Z,56.09
2018-07-23T11:24:15.124Z,57.19
2018-07-23T11:25:38.502Z,56.02
2018-07-23T11:26:14.980Z,54.19
2018-07-23T11:27:15.033Z,55.63
2018-07-23T11:28:15.666Z,54.22
2018-07-23T11:29:14.924Z,55.82
2018-07-23T11:30:15.057Z,53.9
2018-07-23T11:31:15.470Z,54.3
2018-07-23T11:32:15.796Z,53.9
2018-07-23T11:33:14.931Z,54.93
2018-07-23T11:34:20.512Z,52.13
2018-07-23T11:35:14.989Z,52.34
2018-07-23T11:36:14.914Z,51.87
2018-07-23T11:37:14.925Z,50.9
2018-07-23T11:38:14.915Z,51.04
2018-07-23T11:39:14.984Z,49.51
2018-07-23T11:40:15.090Z,52.68
2018-07-23T11:41:15.078Z,53
2018-07-23T11:42:14.979Z,52.59
2018-07-23T11:43:14.981Z,51.41
2018-07-23T11:44:15.013Z,53.52
2018-07-23T11:45:15.282Z,53.05
2018-07-23T11:46:24.447Z,51
2018-07-23T11:47:14.967Z,52.36
2018-07-23T11:48:14.965Z,48.16
2018-07-23T11:49:15.046Z,48.62
2018-07-23T11:50:15.003Z,49.33
2018-07-23T11:51:15.223Z,49.9
2018-07-23T11:52:14.954Z,49.53
2018-07-23T11:53:14.962Z,49.08
2018-07-23T11:54:14.953Z,49.62
2018-07-23T11:55:14.939Z,50.81
2018-07-23T11:56:14.961Z,50.1
2018-07-23T11:57:14.976Z,49.03
2018-07-23T11:58:14.981Z,49.05
2018-07-23T11:59:14.968Z,51.23
2018-07-23T12:00:15.174Z,48.83
2018-07-23T12:01:14.994Z,48.79
2018-07-23T12:02:15.173Z,50.77
2018-07-23T12:03:14.942Z,48.93
2018-07-23T12:04:15.060Z,50.42
2018-07-23T12:05:14.957Z,50.42
2018-07-23T12:06:14.965Z,51.4
2018-07-23T12:07:14.967Z,49.6
2018-07-23T12:08:14.961Z,48.93
2018-07-23T12:09:14.951Z,48.28
2018-07-23T12:10:14.982Z,46.97
2018-07-23T12:11:14.979Z,48.03
2018-07-23T12:12:14.993Z,47.77
2018-07-23T12:13:15.011Z,46.56
2018-07-23T12:14:14.991Z,47.25
2018-07-23T12:15:15.117Z,47.01
2018-07-23T12:16:14.980Z,48.49
2018-07-23T12:17:15.046Z,47.29
2018-07-23T12:18:14.971Z,45.39
2018-07-23T12:19:14.949Z,44.58
2018-07-23T12:20:14.968Z,45.64
2018-07-23T12:21:15.111Z,44.26
2018-07-23T12:22:14.960Z,46.86
2018-07-23T12:23:14.988Z,46.17
2018-07-23T12:24:14.987Z,46.53
2018-07-23T12:25:14.990Z,47.39
2018-07-23T12:26:15.014Z,47.74
2018-07-23T12:27:15.019Z,48.01
2018-07-23T12:28:15.184Z,47.02
2018-07-23T12:29:15.109Z,45.53
2018-07-23T12:30:15.078Z,46.78
2018-07-23T12:31:15.019Z,46.83
2018-07-23T12:32:14.995Z,46.66
2018-07-23T12:33:15.301Z,41.33
2018-07-23T12:34:14.978Z,41.84
2018-07-23T12:35:15.021Z,42.04
2018-07-23T12:36:15.132Z,42.39
2018-07-23T12:37:14.984Z,42.73
2018-07-23T12:38:16.033Z,41.41
2018-07-23T12:39:14.995Z,42.84
2018-07-23T12:40:15.038Z,41.18
2018-07-23T12:41:15.198Z,42.92
2018-07-23T12:42:15.081Z,41.88
2018-07-23T12:43:15.011Z,41.62
2018-07-23T12:44:15.017Z,42.39
2018-07-23T12:45:15.183Z,42.95
2018-07-23T12:46:15.187Z,42.94
2018-07-23T12:47:15.008Z,41.43
2018-07-23T12:48:15.001Z,42.2
2018-07-23T12:49:15.006Z,40.99
2018-07-23T12:50:15.009Z,43.07
2018-07-23T12:51:15.117Z,44.45
2018-07-23T12:52:15.035Z,44.45
2018-07-23T12:53:14.989Z,43.91
2018-07-23T12:54:15.056Z,41.85
2018-07-23T12:55:15.026Z,42.6
2018-07-23T12:56:15.006Z,42.32